sensor_id;sensor_type;location;lat;lon;timestamp;temperature;humidity
9389;DHT22;4734;52.778;6.798;2022-11-18T00:00:11;8.60;99.90
9389;DHT22;4734;52.778;6.798;2022-11-18T00:02:57;8.60;99.90
9389;DHT22;4734;52.778;6.798;2022-11-18T00:05:51;8.60;99.90
9389;DHT22;4734;52.778;6.798;2022-11-18T00:08:37;8.50;99.90
9389;DHT22;4734;52.778;6.798;2022-11-18T00:11:24;8.60;99.90
9389;DHT22;4734;52.778;6.798;2022-11-18T00:14:28;8.60;99.90
9389;DHT22;4734;52.778;6.798;2022-11-18T00:17:14;8.60;99.90
9389;DHT22;4734;52.778;6.798;2022-11-18T00:19:59;8.60;99.90
9389;DHT22;4734;52.778;6.798;2022-11-18T00:22:47;8.60;99.90
9389;DHT22;4734;52.778;6.798;2022-11-18T00:25:33;8.60;99.90
9389;DHT22;4734;52.778;6.798;2022-11-18T00:28:18;8.60;99.90
9389;DHT22;4734;52.778;6.798;2022-11-18T00:31:05;8.60;99.90
9389;DHT22;4734;52.778;6.798;2022-11-18T00:33:52;8.60;99.90
9389;DHT22;4734;52.778;6.798;2022-11-18T00:36:38;8.60;99.90
9389;DHT22;4734;52.778;6.798;2022-11-18T00:39:25;8.60;99.90
9389;DHT22;4734;52.778;6.798;2022-11-18T00:42:11;8.60;99.90
9389;DHT22;4734;52.778;6.798;2022-11-18T00:45:14;8.60;99.90
9389;DHT22;4734;52.778;6.798;2022-11-18T00:47:59;8.60;99.90
9389;DHT22;4734;52.778;6.798;2022-11-18T00:50:45;8.60;99.90
9389;DHT22;4734;52.778;6.798;2022-11-18T00:53:31;8.60;99.90
9389;DHT22;4734;52.778;6.798;2022-11-18T00:56:18;8.60;99.90
9389;DHT22;4734;52.778;6.798;2022-11-18T00:59:03;8.70;99.90
9389;DHT22;4734;52.778;6.798;2022-11-18T01:01:49;8.70;99.90
9389;DHT22;4734;52.778;6.798;2022-11-18T01:04:35;8.70;99.90
9389;DHT22;4734;52.778;6.798;2022-11-18T01:07:21;8.70;99.90
9389;DHT22;4734;52.778;6.798;2022-11-18T01:10:07;8.70;99.90
9389;DHT22;4734;52.778;6.798;2022-11-18T01:12:54;8.70;99.90
9389;DHT22;4734;52.778;6.798;2022-11-18T01:15:58;8.70;99.90
9389;DHT22;4734;52.778;6.798;2022-11-18T01:18:43;8.60;99.90
9389;DHT22;4734;52.778;6.798;2022-11-18T01:21:29;8.60;99.90
9389;DHT22;4734;52.778;6.798;2022-11-18T01:24:15;8.70;99.90
9389;DHT22;4734;52.778;6.798;2022-11-18T01:27:01;8.70;99.90
9389;DHT22;4734;52.778;6.798;2022-11-18T01:29:48;8.70;99.90
9389;DHT22;4734;52.778;6.798;2022-11-18T01:32:34;8.70;99.90
9389;DHT22;4734;52.778;6.798;2022-11-18T01:35:19;8.70;99.90
9389;DHT22;4734;52.778;6.798;2022-11-18T01:38:06;8.70;99.90
9389;DHT22;4734;52.778;6.798;2022-11-18T01:40:52;8.70;99.90
9389;DHT22;4734;52.778;6.798;2022-11-18T01:43:53;8.70;99.90
9389;DHT22;4734;52.778;6.798;2022-11-18T01:46:41;8.70;99.90
9389;DHT22;4734;52.778;6.798;2022-11-18T01:49:27;8.70;99.90
9389;DHT22;4734;52.778;6.798;2022-11-18T01:52:13;8.70;99.90
9389;DHT22;4734;52.778;6.798;2022-11-18T01:55:05;8.70;99.90
9389;DHT22;4734;52.778;6.798;2022-11-18T01:57:57;8.70;99.90
9389;DHT22;4734;52.778;6.798;2022-11-18T02:00:44;8.70;99.90
9389;DHT22;4734;52.778;6.798;2022-11-18T02:03:32;8.70;99.90
9389;DHT22;4734;52.778;6.798;2022-11-18T02:06:18;8.70;99.90
9389;DHT22;4734;52.778;6.798;2022-11-18T02:09:05;8.70;99.90
9389;DHT22;4734;52.778;6.798;2022-11-18T02:11:51;8.70;99.90
9389;DHT22;4734;52.778;6.798;2022-11-18T02:14:40;8.70;99.90
9389;DHT22;4734;52.778;6.798;2022-11-18T02:17:35;8.70;99.90
9389;DHT22;4734;52.778;6.798;2022-11-18T02:20:31;8.70;99.90
9389;DHT22;4734;52.778;6.798;2022-11-18T02:23:45;8.70;99.90
9389;DHT22;4734;52.778;6.798;2022-11-18T02:27:12;8.70;99.90
9389;DHT22;4734;52.778;6.798;2022-11-18T02:30:04;8.70;99.90
9389;DHT22;4734;52.778;6.798;2022-11-18T02:32:54;8.70;99.90
9389;DHT22;4734;52.778;6.798;2022-11-18T02:35:43;8.70;99.90
9389;DHT22;4734;52.778;6.798;2022-11-18T02:38:33;8.70;99.90
9389;DHT22;4734;52.778;6.798;2022-11-18T02:41:24;8.60;99.90
9389;DHT22;4734;52.778;6.798;2022-11-18T02:44:13;8.70;99.90
9389;DHT22;4734;52.778;6.798;2022-11-18T02:47:05;8.60;99.90
9389;DHT22;4734;52.778;6.798;2022-11-18T02:49:55;8.60;99.90
9389;DHT22;4734;52.778;6.798;2022-11-18T02:52:44;8.70;99.90
9389;DHT22;4734;52.778;6.798;2022-11-18T02:55:33;8.70;99.90
9389;DHT22;4734;52.778;6.798;2022-11-18T02:58:20;8.70;99.90
9389;DHT22;4734;52.778;6.798;2022-11-18T03:01:15;8.70;99.90
9389;DHT22;4734;52.778;6.798;2022-11-18T03:04:03;8.70;99.90
9389;DHT22;4734;52.778;6.798;2022-11-18T03:06:55;8.60;99.90
9389;DHT22;4734;52.778;6.798;2022-11-18T03:09:48;8.70;99.90
9389;DHT22;4734;52.778;6.798;2022-11-18T03:12:39;8.70;99.90
9389;DHT22;4734;52.778;6.798;2022-11-18T03:15:33;8.70;99.90
9389;DHT22;4734;52.778;6.798;2022-11-18T03:18:24;8.70;99.90
9389;DHT22;4734;52.778;6.798;2022-11-18T03:21:16;8.70;99.90
9389;DHT22;4734;52.778;6.798;2022-11-18T03:24:10;8.70;99.90
9389;DHT22;4734;52.778;6.798;2022-11-18T03:27:05;8.70;99.90
9389;DHT22;4734;52.778;6.798;2022-11-18T03:30:00;8.70;99.90
9389;DHT22;4734;52.778;6.798;2022-11-18T03:32:50;8.70;99.90
9389;DHT22;4734;52.778;6.798;2022-11-18T03:35:39;8.70;99.90
9389;DHT22;4734;52.778;6.798;2022-11-18T03:38:31;8.70;99.90
9389;DHT22;4734;52.778;6.798;2022-11-18T03:41:19;8.70;99.90
9389;DHT22;4734;52.778;6.798;2022-11-18T03:44:10;8.70;99.90
9389;DHT22;4734;52.778;6.798;2022-11-18T03:47:00;8.70;99.90
9389;DHT22;4734;52.778;6.798;2022-11-18T03:49:52;8.70;99.90
9389;DHT22;4734;52.778;6.798;2022-11-18T03:52:40;8.60;99.90
9389;DHT22;4734;52.778;6.798;2022-11-18T03:55:31;8.70;99.90
9389;DHT22;4734;52.778;6.798;2022-11-18T03:58:22;8.60;99.90
9389;DHT22;4734;52.778;6.798;2022-11-18T04:01:13;8.60;99.90
9389;DHT22;4734;52.778;6.798;2022-11-18T04:04:00;8.60;99.90
9389;DHT22;4734;52.778;6.798;2022-11-18T04:06:48;8.60;99.90
9389;DHT22;4734;52.778;6.798;2022-11-18T04:09:39;8.60;99.90
9389;DHT22;4734;52.778;6.798;2022-11-18T04:12:32;8.70;99.90
9389;DHT22;4734;52.778;6.798;2022-11-18T04:15:18;8.70;99.90
9389;DHT22;4734;52.778;6.798;2022-11-18T04:18:06;8.70;99.90
9389;DHT22;4734;52.778;6.798;2022-11-18T04:20:52;8.70;99.90
9389;DHT22;4734;52.778;6.798;2022-11-18T04:23:37;8.70;99.90
9389;DHT22;4734;52.778;6.798;2022-11-18T04:26:23;8.60;99.90
9389;DHT22;4734;52.778;6.798;2022-11-18T04:29:10;8.70;99.90
9389;DHT22;4734;52.778;6.798;2022-11-18T04:31:57;8.70;99.90
9389;DHT22;4734;52.778;6.798;2022-11-18T04:34:42;8.70;99.90
9389;DHT22;4734;52.778;6.798;2022-11-18T04:37:28;8.70;99.90
9389;DHT22;4734;52.778;6.798;2022-11-18T04:40:14;8.70;99.90
9389;DHT22;4734;52.778;6.798;2022-11-18T04:42:59;8.70;99.90
9389;DHT22;4734;52.778;6.798;2022-11-18T04:45:46;8.70;99.90
9389;DHT22;4734;52.778;6.798;2022-11-18T04:48:32;8.60;99.90
9389;DHT22;4734;52.778;6.798;2022-11-18T04:51:18;8.60;99.90
9389;DHT22;4734;52.778;6.798;2022-11-18T04:54:04;8.60;99.90
9389;DHT22;4734;52.778;6.798;2022-11-18T04:56:49;8.60;99.90
9389;DHT22;4734;52.778;6.798;2022-11-18T04:59:35;8.60;99.90
9389;DHT22;4734;52.778;6.798;2022-11-18T05:02:22;8.60;99.90
9389;DHT22;4734;52.778;6.798;2022-11-18T05:05:08;8.60;99.90
9389;DHT22;4734;52.778;6.798;2022-11-18T05:07:54;8.60;99.90
9389;DHT22;4734;52.778;6.798;2022-11-18T05:10:39;8.60;99.90
9389;DHT22;4734;52.778;6.798;2022-11-18T05:13:25;8.60;99.90
9389;DHT22;4734;52.778;6.798;2022-11-18T05:16:09;8.60;99.90
9389;DHT22;4734;52.778;6.798;2022-11-18T05:18:57;8.60;99.90
9389;DHT22;4734;52.778;6.798;2022-11-18T05:21:42;8.60;99.90
9389;DHT22;4734;52.778;6.798;2022-11-18T05:24:28;8.60;99.90
9389;DHT22;4734;52.778;6.798;2022-11-18T05:27:14;8.60;99.90
9389;DHT22;4734;52.778;6.798;2022-11-18T05:30:00;8.60;99.90
9389;DHT22;4734;52.778;6.798;2022-11-18T05:32:45;8.60;99.90
9389;DHT22;4734;52.778;6.798;2022-11-18T05:35:36;8.60;99.90
9389;DHT22;4734;52.778;6.798;2022-11-18T05:38:21;8.60;99.90
9389;DHT22;4734;52.778;6.798;2022-11-18T05:41:07;8.60;99.90
9389;DHT22;4734;52.778;6.798;2022-11-18T05:43:53;8.60;99.90
9389;DHT22;4734;52.778;6.798;2022-11-18T05:46:38;8.60;99.90
9389;DHT22;4734;52.778;6.798;2022-11-18T05:49:24;8.60;99.90
9389;DHT22;4734;52.778;6.798;2022-11-18T05:52:11;8.60;99.90
9389;DHT22;4734;52.778;6.798;2022-11-18T05:54:57;8.60;99.90
9389;DHT22;4734;52.778;6.798;2022-11-18T05:57:42;8.60;99.90
9389;DHT22;4734;52.778;6.798;2022-11-18T06:00:28;8.60;99.90
9389;DHT22;4734;52.778;6.798;2022-11-18T06:03:18;8.60;99.90
9389;DHT22;4734;52.778;6.798;2022-11-18T06:06:08;8.50;99.90
9389;DHT22;4734;52.778;6.798;2022-11-18T06:09:03;8.50;99.90
9389;DHT22;4734;52.778;6.798;2022-11-18T06:11:53;8.60;99.90
9389;DHT22;4734;52.778;6.798;2022-11-18T06:14:42;8.60;99.90
9389;DHT22;4734;52.778;6.798;2022-11-18T06:17:33;8.60;99.90
9389;DHT22;4734;52.778;6.798;2022-11-18T06:20:21;8.50;99.90
9389;DHT22;4734;52.778;6.798;2022-11-18T06:23:08;8.60;99.90
9389;DHT22;4734;52.778;6.798;2022-11-18T06:25:55;8.50;99.90
9389;DHT22;4734;52.778;6.798;2022-11-18T06:28:42;8.50;99.90
9389;DHT22;4734;52.778;6.798;2022-11-18T06:31:28;8.50;99.90
9389;DHT22;4734;52.778;6.798;2022-11-18T06:34:14;8.50;99.90
9389;DHT22;4734;52.778;6.798;2022-11-18T06:37:14;8.50;99.90
9389;DHT22;4734;52.778;6.798;2022-11-18T06:40:00;8.50;99.90
9389;DHT22;4734;52.778;6.798;2022-11-18T06:42:47;8.50;99.90
9389;DHT22;4734;52.778;6.798;2022-11-18T06:45:50;8.50;99.90
9389;DHT22;4734;52.778;6.798;2022-11-18T06:48:50;8.50;99.90
9389;DHT22;4734;52.778;6.798;2022-11-18T06:51:36;8.50;99.90
9389;DHT22;4734;52.778;6.798;2022-11-18T06:54:22;8.50;99.90
9389;DHT22;4734;52.778;6.798;2022-11-18T06:57:07;8.50;99.90
9389;DHT22;4734;52.778;6.798;2022-11-18T06:59:54;8.50;99.90
9389;DHT22;4734;52.778;6.798;2022-11-18T07:02:40;8.50;99.90
9389;DHT22;4734;52.778;6.798;2022-11-18T07:05:26;8.50;99.90
9389;DHT22;4734;52.778;6.798;2022-11-18T07:08:12;8.50;99.90
9389;DHT22;4734;52.778;6.798;2022-11-18T07:10:58;8.40;99.90
9389;DHT22;4734;52.778;6.798;2022-11-18T07:13:44;8.40;99.90
9389;DHT22;4734;52.778;6.798;2022-11-18T07:16:33;8.50;99.90
9389;DHT22;4734;52.778;6.798;2022-11-18T07:19:20;8.50;99.90
9389;DHT22;4734;52.778;6.798;2022-11-18T07:22:06;8.50;99.90
9389;DHT22;4734;52.778;6.798;2022-11-18T07:24:55;8.40;99.90
9389;DHT22;4734;52.778;6.798;2022-11-18T07:27:42;8.50;99.90
9389;DHT22;4734;52.778;6.798;2022-11-18T07:30:28;8.40;99.90
9389;DHT22;4734;52.778;6.798;2022-11-18T07:33:15;8.40;99.90
9389;DHT22;4734;52.778;6.798;2022-11-18T07:36:01;8.40;99.90
9389;DHT22;4734;52.778;6.798;2022-11-18T07:38:49;8.40;99.90
9389;DHT22;4734;52.778;6.798;2022-11-18T07:41:38;8.40;99.90
9389;DHT22;4734;52.778;6.798;2022-11-18T07:44:26;8.40;99.90
9389;DHT22;4734;52.778;6.798;2022-11-18T07:47:14;8.40;99.90
9389;DHT22;4734;52.778;6.798;2022-11-18T07:50:01;8.40;99.90
9389;DHT22;4734;52.778;6.798;2022-11-18T07:52:50;8.40;99.90
9389;DHT22;4734;52.778;6.798;2022-11-18T07:55:41;8.40;99.90
9389;DHT22;4734;52.778;6.798;2022-11-18T07:58:27;8.40;99.90
9389;DHT22;4734;52.778;6.798;2022-11-18T08:01:14;8.40;99.90
9389;DHT22;4734;52.778;6.798;2022-11-18T08:04:07;8.40;99.90
9389;DHT22;4734;52.778;6.798;2022-11-18T08:06:55;8.40;99.90
9389;DHT22;4734;52.778;6.798;2022-11-18T08:09:41;8.40;99.90
9389;DHT22;4734;52.778;6.798;2022-11-18T08:12:26;8.40;99.90
9389;DHT22;4734;52.778;6.798;2022-11-18T08:15:13;8.40;99.90
9389;DHT22;4734;52.778;6.798;2022-11-18T08:17:59;8.40;99.90
9389;DHT22;4734;52.778;6.798;2022-11-18T08:20:44;8.40;99.90
9389;DHT22;4734;52.778;6.798;2022-11-18T08:23:32;8.40;99.90
9389;DHT22;4734;52.778;6.798;2022-11-18T08:26:18;8.40;99.90
9389;DHT22;4734;52.778;6.798;2022-11-18T08:29:04;8.40;99.90
9389;DHT22;4734;52.778;6.798;2022-11-18T08:31:50;8.40;99.90
9389;DHT22;4734;52.778;6.798;2022-11-18T08:34:36;8.40;99.90
9389;DHT22;4734;52.778;6.798;2022-11-18T08:37:21;8.40;99.90
9389;DHT22;4734;52.778;6.798;2022-11-18T08:40:09;8.40;99.90
9389;DHT22;4734;52.778;6.798;2022-11-18T08:42:55;8.40;99.90
9389;DHT22;4734;52.778;6.798;2022-11-18T08:45:41;8.40;99.90
9389;DHT22;4734;52.778;6.798;2022-11-18T08:48:27;8.40;99.90
9389;DHT22;4734;52.778;6.798;2022-11-18T08:51:13;8.40;99.90
9389;DHT22;4734;52.778;6.798;2022-11-18T08:54:02;8.40;99.90
9389;DHT22;4734;52.778;6.798;2022-11-18T08:56:50;8.40;99.90
9389;DHT22;4734;52.778;6.798;2022-11-18T08:59:36;8.40;99.90
9389;DHT22;4734;52.778;6.798;2022-11-18T09:02:23;8.40;99.90
9389;DHT22;4734;52.778;6.798;2022-11-18T09:05:09;8.40;99.90
9389;DHT22;4734;52.778;6.798;2022-11-18T09:07:54;8.40;99.90
9389;DHT22;4734;52.778;6.798;2022-11-18T09:10:40;8.40;99.90
9389;DHT22;4734;52.778;6.798;2022-11-18T09:13:27;8.40;99.90
9389;DHT22;4734;52.778;6.798;2022-11-18T09:16:13;8.40;99.90
9389;DHT22;4734;52.778;6.798;2022-11-18T09:18:59;8.40;99.90
9389;DHT22;4734;52.778;6.798;2022-11-18T09:21:45;8.40;99.90
9389;DHT22;4734;52.778;6.798;2022-11-18T09:24:33;8.40;99.90
9389;DHT22;4734;52.778;6.798;2022-11-18T09:27:18;8.40;99.90
9389;DHT22;4734;52.778;6.798;2022-11-18T09:30:10;8.40;99.90
9389;DHT22;4734;52.778;6.798;2022-11-18T09:32:56;8.40;99.90
9389;DHT22;4734;52.778;6.798;2022-11-18T09:35:42;8.40;99.90
9389;DHT22;4734;52.778;6.798;2022-11-18T09:38:28;8.40;99.90
9389;DHT22;4734;52.778;6.798;2022-11-18T09:41:30;8.30;99.90
9389;DHT22;4734;52.778;6.798;2022-11-18T09:44:42;8.40;99.90
9389;DHT22;4734;52.778;6.798;2022-11-18T09:47:33;8.40;99.90
9389;DHT22;4734;52.778;6.798;2022-11-18T09:50:20;8.40;99.90
9389;DHT22;4734;52.778;6.798;2022-11-18T09:53:22;8.40;99.90
9389;DHT22;4734;52.778;6.798;2022-11-18T09:56:14;8.40;99.90
9389;DHT22;4734;52.778;6.798;2022-11-18T09:59:02;8.40;99.90
9389;DHT22;4734;52.778;6.798;2022-11-18T10:01:50;8.40;99.90
9389;DHT22;4734;52.778;6.798;2022-11-18T10:04:38;8.40;99.90
9389;DHT22;4734;52.778;6.798;2022-11-18T10:07:31;8.40;99.90
9389;DHT22;4734;52.778;6.798;2022-11-18T10:10:27;8.40;99.90
9389;DHT22;4734;52.778;6.798;2022-11-18T10:13:22;8.40;99.90
9389;DHT22;4734;52.778;6.798;2022-11-18T10:16:25;8.40;99.90
9389;DHT22;4734;52.778;6.798;2022-11-18T10:19:23;8.40;99.90
9389;DHT22;4734;52.778;6.798;2022-11-18T10:22:18;8.40;99.90
9389;DHT22;4734;52.778;6.798;2022-11-18T10:25:10;8.40;99.90
9389;DHT22;4734;52.778;6.798;2022-11-18T10:28:11;8.40;99.90
9389;DHT22;4734;52.778;6.798;2022-11-18T10:31:04;8.40;99.90
9389;DHT22;4734;52.778;6.798;2022-11-18T10:33:57;8.40;99.90
9389;DHT22;4734;52.778;6.798;2022-11-18T10:36:57;8.40;99.90
9389;DHT22;4734;52.778;6.798;2022-11-18T10:39:51;8.40;99.90
9389;DHT22;4734;52.778;6.798;2022-11-18T10:42:41;8.40;99.90
9389;DHT22;4734;52.778;6.798;2022-11-18T10:45:30;8.40;99.90
9389;DHT22;4734;52.778;6.798;2022-11-18T10:48:17;8.40;99.90
9389;DHT22;4734;52.778;6.798;2022-11-18T10:51:19;8.40;99.90
9389;DHT22;4734;52.778;6.798;2022-11-18T10:54:08;8.40;99.90
9389;DHT22;4734;52.778;6.798;2022-11-18T10:56:59;8.40;99.90
9389;DHT22;4734;52.778;6.798;2022-11-18T10:59:49;8.40;99.90
9389;DHT22;4734;52.778;6.798;2022-11-18T11:02:39;8.40;99.90
9389;DHT22;4734;52.778;6.798;2022-11-18T11:05:26;8.40;99.90
9389;DHT22;4734;52.778;6.798;2022-11-18T11:08:18;8.40;99.90
9389;DHT22;4734;52.778;6.798;2022-11-18T11:11:05;8.40;99.90
9389;DHT22;4734;52.778;6.798;2022-11-18T11:17:09;8.40;99.90
9389;DHT22;4734;52.778;6.798;2022-11-18T11:20:03;8.40;99.90
9389;DHT22;4734;52.778;6.798;2022-11-18T11:22:50;8.40;99.90
9389;DHT22;4734;52.778;6.798;2022-11-18T11:25:45;8.50;99.90
9389;DHT22;4734;52.778;6.798;2022-11-18T11:28:38;8.40;99.90
9389;DHT22;4734;52.778;6.798;2022-11-18T11:31:36;8.40;99.90
9389;DHT22;4734;52.778;6.798;2022-11-18T11:34:33;8.40;99.90
9389;DHT22;4734;52.778;6.798;2022-11-18T11:37:29;8.40;99.90
9389;DHT22;4734;52.778;6.798;2022-11-18T11:40:24;8.40;99.90
9389;DHT22;4734;52.778;6.798;2022-11-18T11:43:24;8.40;99.90
9389;DHT22;4734;52.778;6.798;2022-11-18T11:46:26;8.40;99.90
9389;DHT22;4734;52.778;6.798;2022-11-18T11:49:18;8.40;99.90
9389;DHT22;4734;52.778;6.798;2022-11-18T11:52:12;8.40;99.90
9389;DHT22;4734;52.778;6.798;2022-11-18T11:55:06;8.40;99.90
9389;DHT22;4734;52.778;6.798;2022-11-18T11:58:06;8.40;99.90
9389;DHT22;4734;52.778;6.798;2022-11-18T12:00:58;8.30;99.90
9389;DHT22;4734;52.778;6.798;2022-11-18T12:03:47;8.40;99.90
9389;DHT22;4734;52.778;6.798;2022-11-18T12:06:38;8.30;99.90
9389;DHT22;4734;52.778;6.798;2022-11-18T12:09:38;8.30;99.90
9389;DHT22;4734;52.778;6.798;2022-11-18T12:12:31;8.30;99.90
9389;DHT22;4734;52.778;6.798;2022-11-18T12:15:34;8.30;99.90
9389;DHT22;4734;52.778;6.798;2022-11-18T12:18:28;8.30;99.90
9389;DHT22;4734;52.778;6.798;2022-11-18T12:24:37;8.30;99.90
9389;DHT22;4734;52.778;6.798;2022-11-18T12:30:44;8.20;99.90
9389;DHT22;4734;52.778;6.798;2022-11-18T12:33:32;8.20;99.90
9389;DHT22;4734;52.778;6.798;2022-11-18T12:36:36;8.20;99.90
9389;DHT22;4734;52.778;6.798;2022-11-18T12:39:56;8.20;99.90
9389;DHT22;4734;52.778;6.798;2022-11-18T12:42:56;8.20;99.90
9389;DHT22;4734;52.778;6.798;2022-11-18T12:46:00;8.20;99.90
9389;DHT22;4734;52.778;6.798;2022-11-18T12:48:45;8.20;99.90
9389;DHT22;4734;52.778;6.798;2022-11-18T12:51:40;8.20;99.90
9389;DHT22;4734;52.778;6.798;2022-11-18T12:54:30;8.20;99.90
9389;DHT22;4734;52.778;6.798;2022-11-18T12:57:20;8.20;99.90
9389;DHT22;4734;52.778;6.798;2022-11-18T13:00:16;8.20;99.90
9389;DHT22;4734;52.778;6.798;2022-11-18T13:03:02;8.20;99.90
9389;DHT22;4734;52.778;6.798;2022-11-18T13:05:49;8.20;99.90
9389;DHT22;4734;52.778;6.798;2022-11-18T13:08:36;8.20;99.90
9389;DHT22;4734;52.778;6.798;2022-11-18T13:11:23;8.20;99.90
9389;DHT22;4734;52.778;6.798;2022-11-18T13:14:29;8.20;99.90
9389;DHT22;4734;52.778;6.798;2022-11-18T13:17:35;8.20;99.90
9389;DHT22;4734;52.778;6.798;2022-11-18T13:20:41;8.20;99.90
9389;DHT22;4734;52.778;6.798;2022-11-18T13:23:29;8.20;99.90
9389;DHT22;4734;52.778;6.798;2022-11-18T13:26:34;8.20;99.90
9389;DHT22;4734;52.778;6.798;2022-11-18T13:29:31;8.20;99.90
9389;DHT22;4734;52.778;6.798;2022-11-18T13:32:21;8.20;99.90
9389;DHT22;4734;52.778;6.798;2022-11-18T13:36:00;8.20;99.90
9389;DHT22;4734;52.778;6.798;2022-11-18T13:38:54;8.20;99.90
9389;DHT22;4734;52.778;6.798;2022-11-18T13:41:45;8.20;99.90
9389;DHT22;4734;52.778;6.798;2022-11-18T13:45:13;8.20;99.90
9389;DHT22;4734;52.778;6.798;2022-11-18T13:48:05;8.20;99.90
9389;DHT22;4734;52.778;6.798;2022-11-18T13:50:58;8.20;99.90
9389;DHT22;4734;52.778;6.798;2022-11-18T13:53:45;8.10;99.90
9389;DHT22;4734;52.778;6.798;2022-11-18T13:56:36;8.20;99.90
9389;DHT22;4734;52.778;6.798;2022-11-18T13:59:26;8.10;99.90
9389;DHT22;4734;52.778;6.798;2022-11-18T14:02:15;8.20;99.90
9389;DHT22;4734;52.778;6.798;2022-11-18T14:05:01;8.10;99.90
9389;DHT22;4734;52.778;6.798;2022-11-18T14:08:05;8.10;99.90
9389;DHT22;4734;52.778;6.798;2022-11-18T14:10:51;8.10;99.90
9389;DHT22;4734;52.778;6.798;2022-11-18T14:13:47;8.10;99.90
9389;DHT22;4734;52.778;6.798;2022-11-18T14:16:34;8.10;99.90
9389;DHT22;4734;52.778;6.798;2022-11-18T14:19:29;8.10;99.90
9389;DHT22;4734;52.778;6.798;2022-11-18T14:22:17;8.10;99.90
9389;DHT22;4734;52.778;6.798;2022-11-18T14:25:15;8.10;99.90
9389;DHT22;4734;52.778;6.798;2022-11-18T14:28:11;8.10;99.90
9389;DHT22;4734;52.778;6.798;2022-11-18T14:31:00;8.00;99.90
9389;DHT22;4734;52.778;6.798;2022-11-18T14:37:11;8.00;99.90
9389;DHT22;4734;52.778;6.798;2022-11-18T14:39:57;8.00;99.90
9389;DHT22;4734;52.778;6.798;2022-11-18T14:42:43;8.00;99.90
9389;DHT22;4734;52.778;6.798;2022-11-18T14:45:28;7.90;99.90
9389;DHT22;4734;52.778;6.798;2022-11-18T14:48:16;7.90;99.90
9389;DHT22;4734;52.778;6.798;2022-11-18T14:51:03;7.90;99.90
9389;DHT22;4734;52.778;6.798;2022-11-18T14:53:50;7.90;99.90
9389;DHT22;4734;52.778;6.798;2022-11-18T14:56:36;7.80;99.90
9389;DHT22;4734;52.778;6.798;2022-11-18T14:59:21;7.80;99.90
9389;DHT22;4734;52.778;6.798;2022-11-18T15:02:12;7.80;99.90
9389;DHT22;4734;52.778;6.798;2022-11-18T15:04:58;7.80;99.90
9389;DHT22;4734;52.778;6.798;2022-11-18T15:07:44;7.80;99.90
9389;DHT22;4734;52.778;6.798;2022-11-18T15:10:31;7.80;99.90
9389;DHT22;4734;52.778;6.798;2022-11-18T15:13:16;7.70;99.90
9389;DHT22;4734;52.778;6.798;2022-11-18T15:16:12;7.70;99.90
9389;DHT22;4734;52.778;6.798;2022-11-18T15:19:15;7.70;99.90
9389;DHT22;4734;52.778;6.798;2022-11-18T15:22:16;7.70;99.90
9389;DHT22;4734;52.778;6.798;2022-11-18T15:25:02;7.70;99.90
9389;DHT22;4734;52.778;6.798;2022-11-18T15:28:03;7.60;99.90
9389;DHT22;4734;52.778;6.798;2022-11-18T15:30:51;7.60;99.90
9389;DHT22;4734;52.778;6.798;2022-11-18T15:33:36;7.60;99.90
9389;DHT22;4734;52.778;6.798;2022-11-18T15:36:25;7.60;99.90
9389;DHT22;4734;52.778;6.798;2022-11-18T15:39:12;7.60;99.90
9389;DHT22;4734;52.778;6.798;2022-11-18T15:41:58;7.60;99.90
9389;DHT22;4734;52.778;6.798;2022-11-18T15:44:45;7.50;99.90
9389;DHT22;4734;52.778;6.798;2022-11-18T15:47:30;7.50;99.90
9389;DHT22;4734;52.778;6.798;2022-11-18T15:50:16;7.50;99.90
9389;DHT22;4734;52.778;6.798;2022-11-18T15:53:02;7.50;99.90
9389;DHT22;4734;52.778;6.798;2022-11-18T15:55:47;7.50;99.90
9389;DHT22;4734;52.778;6.798;2022-11-18T15:58:33;7.50;99.90
9389;DHT22;4734;52.778;6.798;2022-11-18T16:01:20;7.40;99.90
9389;DHT22;4734;52.778;6.798;2022-11-18T16:04:07;7.40;99.90
9389;DHT22;4734;52.778;6.798;2022-11-18T16:06:52;7.30;99.90
9389;DHT22;4734;52.778;6.798;2022-11-18T16:09:38;7.30;99.90
9389;DHT22;4734;52.778;6.798;2022-11-18T16:12:41;7.30;99.90
9389;DHT22;4734;52.778;6.798;2022-11-18T16:15:33;7.30;99.90
9389;DHT22;4734;52.778;6.798;2022-11-18T16:18:31;7.30;99.90
9389;DHT22;4734;52.778;6.798;2022-11-18T16:21:17;7.20;99.90
9389;DHT22;4734;52.778;6.798;2022-11-18T16:24:04;7.20;99.90
9389;DHT22;4734;52.778;6.798;2022-11-18T16:26:50;7.20;99.90
9389;DHT22;4734;52.778;6.798;2022-11-18T16:29:35;7.20;99.90
9389;DHT22;4734;52.778;6.798;2022-11-18T16:32:21;7.20;99.90
9389;DHT22;4734;52.778;6.798;2022-11-18T16:35:08;7.20;99.90
9389;DHT22;4734;52.778;6.798;2022-11-18T16:37:54;7.10;99.90
9389;DHT22;4734;52.778;6.798;2022-11-18T16:40:41;7.10;99.90
9389;DHT22;4734;52.778;6.798;2022-11-18T16:43:28;7.10;99.90
9389;DHT22;4734;52.778;6.798;2022-11-18T16:46:14;7.10;99.90
9389;DHT22;4734;52.778;6.798;2022-11-18T16:49:00;7.00;99.90
9389;DHT22;4734;52.778;6.798;2022-11-18T16:51:49;7.00;99.90
9389;DHT22;4734;52.778;6.798;2022-11-18T16:54:36;7.00;99.90
9389;DHT22;4734;52.778;6.798;2022-11-18T16:57:22;7.00;99.90
9389;DHT22;4734;52.778;6.798;2022-11-18T17:00:09;7.00;99.90
9389;DHT22;4734;52.778;6.798;2022-11-18T17:02:55;6.90;99.90
9389;DHT22;4734;52.778;6.798;2022-11-18T17:05:41;7.00;99.90
9389;DHT22;4734;52.778;6.798;2022-11-18T17:08:28;6.90;99.90
9389;DHT22;4734;52.778;6.798;2022-11-18T17:11:18;6.90;99.90
9389;DHT22;4734;52.778;6.798;2022-11-18T17:14:04;6.90;99.90
9389;DHT22;4734;52.778;6.798;2022-11-18T17:16:50;6.90;99.90
9389;DHT22;4734;52.778;6.798;2022-11-18T17:19:36;6.80;99.90
9389;DHT22;4734;52.778;6.798;2022-11-18T17:22:22;6.80;99.90
9389;DHT22;4734;52.778;6.798;2022-11-18T17:25:09;6.80;99.90
9389;DHT22;4734;52.778;6.798;2022-11-18T17:27:55;6.80;99.90
9389;DHT22;4734;52.778;6.798;2022-11-18T17:30:40;6.80;99.90
9389;DHT22;4734;52.778;6.798;2022-11-18T17:33:26;6.80;99.90
9389;DHT22;4734;52.778;6.798;2022-11-18T17:36:13;6.70;99.90
9389;DHT22;4734;52.778;6.798;2022-11-18T17:38:59;6.70;99.90
9389;DHT22;4734;52.778;6.798;2022-11-18T17:41:46;6.70;99.90
9389;DHT22;4734;52.778;6.798;2022-11-18T17:44:53;6.70;99.90
9389;DHT22;4734;52.778;6.798;2022-11-18T17:47:39;6.70;99.90
9389;DHT22;4734;52.778;6.798;2022-11-18T17:50:25;6.60;99.90
9389;DHT22;4734;52.778;6.798;2022-11-18T17:53:12;6.60;99.90
9389;DHT22;4734;52.778;6.798;2022-11-18T17:55:58;6.60;99.90
9389;DHT22;4734;52.778;6.798;2022-11-18T17:58:46;6.60;99.90
9389;DHT22;4734;52.778;6.798;2022-11-18T18:01:33;6.60;99.90
9389;DHT22;4734;52.778;6.798;2022-11-18T18:04:19;6.60;99.90
9389;DHT22;4734;52.778;6.798;2022-11-18T18:07:08;6.60;99.90
9389;DHT22;4734;52.778;6.798;2022-11-18T18:09:53;6.50;99.90
9389;DHT22;4734;52.778;6.798;2022-11-18T18:12:39;6.50;99.90
9389;DHT22;4734;52.778;6.798;2022-11-18T18:15:43;6.50;99.90
9389;DHT22;4734;52.778;6.798;2022-11-18T18:18:29;6.50;99.90
9389;DHT22;4734;52.778;6.798;2022-11-18T18:21:15;6.50;99.90
9389;DHT22;4734;52.778;6.798;2022-11-18T18:24:01;6.40;99.90
9389;DHT22;4734;52.778;6.798;2022-11-18T18:26:49;6.40;99.90
9389;DHT22;4734;52.778;6.798;2022-11-18T18:29:34;6.40;99.90
9389;DHT22;4734;52.778;6.798;2022-11-18T18:32:21;6.40;99.90
9389;DHT22;4734;52.778;6.798;2022-11-18T18:35:08;6.30;99.90
9389;DHT22;4734;52.778;6.798;2022-11-18T18:37:54;6.40;99.90
9389;DHT22;4734;52.778;6.798;2022-11-18T18:40:41;6.30;99.90
9389;DHT22;4734;52.778;6.798;2022-11-18T18:43:28;6.30;99.90
9389;DHT22;4734;52.778;6.798;2022-11-18T18:46:17;6.30;99.90
9389;DHT22;4734;52.778;6.798;2022-11-18T18:49:19;6.30;99.90
9389;DHT22;4734;52.778;6.798;2022-11-18T18:52:07;6.30;99.90
9389;DHT22;4734;52.778;6.798;2022-11-18T18:54:53;6.30;99.90
9389;DHT22;4734;52.778;6.798;2022-11-18T18:57:40;6.20;99.90